Search for airport 
image banner adimage banner adimage banner ad
image banner ad

IA67 - Cass County Memorial Hospital

Located in Atlantic, United States

ICAO - IA67, IATA -

Data provided by Airmate  

General information

Coordinates: N41°24'2" W94°59'24"
Elevation is 1250 feet MSL.
Magnetic variation is 05° East
View others Airports in Iowa

Operational data

Special qualification required
Current time UTC:
Current local time:
Weather at : KAIO - Atlantic Muni ( 5 km )
METAR: KAIO 151035Z AUTO 36004KT 10SM CLR 13/13 A3011 RMK AO2
View NOTAMs / SUP AIP / TFR affecting this airport [VIEW]
Communications frequencies: [VIEW]

Runways:

Airport contact information

Address: Atlantic United States

Satellite view of IA67